Wind From: 13-12-2017 10:08 Until: 14-12-2017 06:00 warning for: Wind Level: Yellow info button

Although rather usual in this region, locally or potentially dangerous phenomena are expected. (such as local winds, summer thunderstorms, rising streams or high waves) Be aware and pay attention to the latest weather updates, especially if you carry out activities exposed to weather or close to a stream or shoreline. 


Meteo18 Weather Cam more information Meteo18 Weather Cam


Thunder radar more information blitzortung!


Rain radar more information rain snow radar


Visit our other weather sites:

Template documentation
and downloads

And another site



Weather Underground History page Text

Daily Summary for September 1, 2017 Units:  English    Metric   Both
« Previous Day
Next Day »
Daily Weekly Monthly Yearly Custom
  High: Low: Average:
Temperature: 69.3 °F 47.8 °F 56.5 °F
Dew Point: 53.4 °F 46.4 °F 50.4 °F
Humidity: 95 % 47 % 81 %
Wind Speed: 9 mph 0 mph 1.3 mph
Wind Gust: 17 mph - -
Wind:- - SSW
Pressure: 30.2 in 30.1 in -
Precipitation: 0.06 in    
Historical Graphs
 
 
Tabular Data for September 1, 2017
Time Temperature Dew Point Pressure Wind Wind Speed Wind Gust Humidity Rainfall Rate (Hourly)
00:02 55.9 °F 50.9 °F 30.2 in Calm     83 % 0 in
00:07 55.9 °F 50.9 °F 30.2 in Calm     83 % 0 in
00:12 56.1 °F 51.1 °F 30.2 in Calm     83 % 0 in
00:17 56.1 °F 51.4 °F 30.2 in Calm     84 % 0 in
00:22 56.1 °F 51.4 °F 30.2 in Calm     84 % 0 in
00:32 55.8 °F 51.3 °F 30.2 in Calm     85 % 0 in
00:42 55.4 °F 50.9 °F 30.2 in Calm     85 % 0 in
00:47 55.2 °F 50.7 °F 30.2 in Calm     85 % 0 in
00:52 55.2 °F 50.7 °F 30.2 in Calm     85 % 0 in
01:02 54.3 °F 49.8 °F 30.2 in Calm     85 % 0 in
01:12 54.3 °F 49.6 °F 30.2 in Calm     84 % 0 in
01:17 54.7 °F 50 °F 30.2 in Calm     84 % 0 in
01:22 54.9 °F 50.7 °F 30.2 in Calm     86 % 0 in
01:27 54.9 °F 50.7 °F 30.2 in Calm     86 % 0 in
01:32 54.5 °F 50 °F 30.2 in Calm     85 % 0 in
01:42 53.8 °F 50 °F 30.2 in Calm     87 % 0 in
01:47 53.6 °F 49.5 °F 30.2 in Calm     86 % 0 in
01:52 53.2 °F 49.5 °F 30.2 in Calm     87 % 0 in
02:02 53.1 °F 49.3 °F 30.2 in Calm     87 % 0 in
02:07 53.1 °F 49.6 °F 30.2 in Calm     88 % 0 in
02:12 52.9 °F 49.5 °F 30.2 in Calm     88 % 0 in
02:22 52.7 °F 49.3 °F 30.2 in Calm     88 % 0 in
02:32 52.7 °F 49.5 °F 30.2 in Calm     89 % 0 in
02:42 52.5 °F 48.7 °F 30.2 in Calm     87 % 0 in
02:47 52.7 °F 48.9 °F 30.2 in Calm     87 % 0 in
02:52 52.5 °F 48.7 °F 30.2 in Calm     87 % 0 in
03:02 52.2 °F 48.4 °F 30.2 in Calm     87 % 0 in
03:07 52 °F 48.6 °F 30.2 in Calm     88 % 0 in
03:12 52 °F 48.6 °F 30.2 in Calm     88 % 0 in
03:17 51.6 °F 48.2 °F 30.2 in Calm     88 % 0 in
03:22 51.4 °F 48 °F 30.2 in Calm     88 % 0 in
03:27 51.3 °F 48.2 °F 30.2 in Calm     89 % 0 in
03:32 51.1 °F 48 °F 30.2 in Calm     89 % 0 in
03:37 50.9 °F 47.8 °F 30.2 in Calm     89 % 0 in
03:42 50.7 °F 47.8 °F 30.2 in Calm     90 % 0 in
03:47 50.7 °F 47.8 °F 30.2 in Calm     90 % 0 in
03:52 50.7 °F 47.8 °F 30.2 in Calm     90 % 0 in
03:57 50.5 °F 48 °F 30.2 in Calm     91 % 0 in
04:02 50.5 °F 48 °F 30.2 in Calm     91 % 0 in
04:12 50.4 °F 47.8 °F 30.2 in Calm     91 % 0 in
04:17 50.4 °F 47.8 °F 30.2 in Calm     91 % 0 in
04:22 50.4 °F 47.8 °F 30.2 in Calm     91 % 0 in
04:27 50.4 °F 47.8 °F 30.2 in Calm     91 % 0 in
04:32 50.4 °F 48.2 °F 30.2 in Calm     92 % 0 in
04:42 50.2 °F 47.7 °F 30.2 in NE 3 mph 4 mph 91 % 0 in
04:47 50 °F 47.8 °F 30.2 in Calm   4 mph 92 % 0 in
04:52 50.2 °F 48.2 °F 30.2 in NNE 1 mph 4 mph 93 % 0 in
04:57 50.2 °F 48 °F 30.2 in NNE 1 mph 3 mph 92 % 0 in
05:02 50.2 °F 48 °F 30.2 in Calm   3 mph 92 % 0 in
05:07 50.4 °F 48.4 °F 30.2 in Calm   2 mph 93 % 0 in
05:12 50.4 °F 48.4 °F 30.2 in ENE 2 mph 2 mph 93 % 0 in
05:22 50.2 °F 48 °F 30.2 in Calm   4 mph 92 % 0 in
05:27 50 °F 47.8 °F 30.2 in Calm   3 mph 92 % 0 in
05:32 49.6 °F 47.5 °F 30.2 in Calm   3 mph 92 % 0 in
05:37 49.5 °F 47.3 °F 30.2 in Calm     92 % 0 in
05:42 49.3 °F 47.1 °F 30.2 in Calm     92 % 0 in
05:47 49.3 °F 47.3 °F 30.2 in Calm   1 mph 93 % 0 in
05:52 49.3 °F 47.3 °F 30.2 in NW 1 mph 1 mph 93 % 0 in
05:57 49.3 °F 47.3 °F 30.2 in Calm   2 mph 93 % 0 in
06:02 49.3 °F 47.3 °F 30.2 in Calm   2 mph 93 % 0 in
06:12 48.7 °F 46.6 °F 30.2 in WNW 2 mph 2 mph 92 % 0 in
06:17 48.4 °F 46.4 °F 30.2 in Calm   1 mph 93 % 0 in
06:22 48.6 °F 46.9 °F 30.2 in Calm   2 mph 94 % 0 in
06:27 48.6 °F 46.9 °F 30.2 in WNW 1 mph 2 mph 94 % 0 in
06:32 48.2 °F 46.6 °F 30.2 in Calm   2 mph 94 % 0 in
06:37 48.2 °F 46.6 °F 30.2 in Calm   2 mph 94 % 0 in
06:42 48 °F 46.4 °F 30.2 in WNW 2 mph 2 mph 94 % 0 in
06:47 48 °F 46.4 °F 30.2 in Calm   2 mph 94 % 0 in
06:52 48 °F 46.4 °F 30.2 in Calm   2 mph 94 % 0 in
06:57 48 °F 46.6 °F 30.2 in West 1 mph 2 mph 95 % 0 in
07:02 48.4 °F 46.9 °F 30.2 in Calm   2 mph 95 % 0 in
07:07 48.4 °F 46.9 °F 30.2 in Calm   1 mph 95 % 0 in
07:12 48.4 °F 46.9 °F 30.2 in Calm   1 mph 95 % 0 in
07:17 48 °F 46.4 °F 30.2 in West 1 mph 2 mph 94 % 0 in
07:22 47.8 °F 46.4 °F 30.2 in West 1 mph 2 mph 95 % 0 in
07:27 48 °F 46.6 °F 30.2 in Calm   2 mph 95 % 0 in
07:32 48.4 °F 46.9 °F 30.2 in Calm   2 mph 95 % 0 in
07:37 48.4 °F 46.9 °F 30.2 in Calm   2 mph 95 % 0 in
07:42 48.4 °F 46.9 °F 30.2 in Calm   2 mph 95 % 0 in
07:47 48.6 °F 47.1 °F 30.2 in Calm     95 % 0 in
07:52 48.6 °F 46.9 °F 30.2 in Calm     94 % 0 in
07:57 48.6 °F 47.1 °F 30.2 in Calm   1 mph 95 % 0 in
08:02 48.6 °F 47.1 °F 30.2 in Calm   1 mph 95 % 0 in
08:07 48.7 °F 47.3 °F 30.2 in Calm     95 % 0 in
08:12 48.7 °F 47.3 °F 30.2 in Calm     95 % 0 in
08:17 49.3 °F 47.8 °F 30.2 in Calm   2 mph 95 % 0 in
08:22 49.6 °F 48.2 °F 30.2 in Calm   2 mph 95 % 0 in
08:32 49.5 °F 47.8 °F 30.2 in Calm   1 mph 94 % 0 in
08:37 49.6 °F 48 °F 30.2 in Calm   1 mph 94 % 0 in
08:42 49.8 °F 48.2 °F 30.2 in Calm   1 mph 94 % 0 in
08:47 50.2 °F 48.6 °F 30.2 in Calm     94 % 0 in
08:57 50.9 °F 49.5 °F 30.2 in Calm     95 % 0 in
09:02 51.6 °F 50.2 °F 30.2 in Calm     95 % 0 in
09:07 52.2 °F 50.5 °F 30.2 in Calm   1 mph 94 % 0 in
09:12 53.1 °F 51.4 °F 30.2 in Calm   1 mph 94 % 0 in
09:22 54.1 °F 51.6 °F 30.2 in Calm   1 mph 91 % 0 in
09:27 54.7 °F 51.4 °F 30.2 in Calm   1 mph 89 % 0 in
09:32 55.6 °F 52.7 °F 30.2 in Calm   1 mph 90 % 0 in
09:37 56.8 °F 52.7 °F 30.2 in Calm     86 % 0 in
09:42 57.4 °F 52.5 °F 30.2 in Calm     84 % 0 in
09:47 58.6 °F 53.2 °F 30.2 in Calm     82 % 0 in
09:52 58.3 °F 52.2 °F 30.2 in Calm     80 % 0 in
09:57 58.5 °F 52.7 °F 30.2 in Calm     81 % 0 in
10:02 58.8 °F 52.3 °F 30.2 in Calm     79 % 0 in
10:07 59.4 °F 52.5 °F 30.2 in Calm     78 % 0 in
10:12 59.5 °F 52.3 °F 30.2 in Calm     77 % 0 in
10:17 59.7 °F 52.5 °F 30.2 in Calm     77 % 0 in
10:27 60.3 °F 52 °F 30.2 in Calm   1 mph 74 % 0 in
10:32 61 °F 52.3 °F 30.2 in Calm   1 mph 73 % 0 in
10:37 61.9 °F 52.7 °F 30.2 in Calm   2 mph 72 % 0 in
10:42 61.9 °F 52 °F 30.2 in ESE 3 mph 3 mph 70 % 0 in
10:47 61.5 °F 52.3 °F 30.2 in SE 3 mph 5 mph 72 % 0 in
10:52 61.9 °F 53.1 °F 30.2 in Calm   5 mph 73 % 0 in
10:57 62.1 °F 52.5 °F 30.2 in SSE 2 mph 6 mph 71 % 0 in
11:02 62.1 °F 52.9 °F 30.2 in Calm   6 mph 72 % 0 in
11:07 62.2 °F 52.3 °F 30.2 in SW 3 mph 6 mph 70 % 0 in
11:12 62.4 °F 52.2 °F 30.2 in SE 1 mph 6 mph 69 % 0 in
11:22 64 °F 52.5 °F 30.2 in SSE 1 mph 4 mph 66 % 0 in
11:27 64.6 °F 53.4 °F 30.2 in South 2 mph 4 mph 67 % 0 in
11:32 65.1 °F 53.1 °F 30.2 in SW 3 mph 4 mph 65 % 0 in
11:37 64.6 °F 52.2 °F 30.2 in SSW 1 mph 4 mph 64 % 0 in
11:42 64.8 °F 52.3 °F 30.2 in SW 1 mph 4 mph 64 % 0 in
11:47 64.4 °F 52 °F 30.2 in Calm   5 mph 64 % 0 in
11:57 65.5 °F 52.2 °F 30.2 in South 1 mph 5 mph 62 % 0 in
12:02 66 °F 52.7 °F 30.2 in SSW 4 mph 5 mph 62 % 0 in
12:12 67.8 °F 53.4 °F 30.2 in Calm   6 mph 60 % 0 in
12:17 68 °F 50.7 °F 30.2 in WSW 3 mph 7 mph 54 % 0 in
12:22 68.4 °F 51.1 °F 30.2 in SE 1 mph 7 mph 54 % 0 in
12:32 69.3 °F 48.7 °F 30.2 in SSW 2 mph 7 mph 48 % 0 in
12:37 68.5 °F 47.5 °F 30.2 in West 2 mph 6 mph 47 % 0 in
12:42 68.2 °F 48.9 °F 30.2 in WNW 1 mph 6 mph 50 % 0 in
12:47 67.5 °F 48.7 °F 30.2 in WNW 6 mph 6 mph 51 % 0 in
12:52 65.5 °F 46.4 °F 30.2 in WNW 9 mph 13 mph 50 % 0 in
12:57 63 °F 48 °F 30.2 in North 5 mph 17 mph 58 % 0 in
13:02 61.2 °F 48 °F 30.2 in NW 5 mph 17 mph 62 % 0.01 in
13:12 59.7 °F 48.4 °F 30.2 in NW 4 mph 9 mph 66 % 0.02 in
13:17 58.8 °F 49.1 °F 30.2 in NNW 5 mph 9 mph 70 % 0.02 in
13:22 59 °F 48.4 °F 30.2 in NNW 5 mph 11 mph 68 % 0.03 in
13:27 59.4 °F 48 °F 30.2 in North 4 mph 11 mph 66 % 0.03 in
13:32 59.7 °F 50.4 °F 30.2 in NNW 2 mph 9 mph 71 % 0.03 in
13:37 58.6 °F 50.7 °F 30.2 in NNW 4 mph 9 mph 75 % 0.03 in
13:42 59 °F 51.4 °F 30.2 in NNE 5 mph 8 mph 76 % 0.04 in
13:47 59.2 °F 51.3 °F 30.2 in NNW 6 mph 9 mph 75 % 0.04 in
13:52 59.5 °F 51.6 °F 30.2 in NNW 5 mph 12 mph 75 % 0.04 in
13:57 59.9 °F 52.7 °F 30.2 in NNE 4 mph 12 mph 77 % 0.04 in
14:02 60.3 °F 52.3 °F 30.2 in NNE 6 mph 12 mph 75 % 0.03 in
14:07 60.4 °F 51.8 °F 30.2 in ENE 6 mph 9 mph 73 % 0.03 in
14:12 60.4 °F 51.4 °F 30.2 in ENE 2 mph 9 mph 72 % 0.02 in
14:17 60.4 °F 51.4 °F 30.2 in Calm   9 mph 72 % 0.02 in
14:22 60.6 °F 52 °F 30.2 in ESE 1 mph 7 mph 73 % 0.01 in
14:32 60.6 °F 51.1 °F 30.2 in Calm   4 mph 71 % 0.01 in
14:37 60.4 °F 51.1 °F 30.2 in East 4 mph 6 mph 71 % 0.01 in
14:42 60.1 °F 50.2 °F 30.2 in ENE 4 mph 6 mph 70 % 0 in
14:47 60.1 °F 49.5 °F 30.2 in NNE 4 mph 6 mph 68 % 0 in
14:57 60.3 °F 49.6 °F 30.2 in NNE 5 mph 6 mph 68 % 0 in
15:02 60.4 °F 50.2 °F 30.2 in NE 1 mph 8 mph 69 % 0 in
15:12 61.2 °F 50.5 °F 30.2 in Calm   7 mph 68 % 0 in
15:17 61.3 °F 49.8 °F 30.2 in NNW 1 mph 4 mph 66 % 0 in
15:22 61.2 °F 52 °F 30.2 in WNW 1 mph 2 mph 72 % 0 in
15:32 60.8 °F 52.2 °F 30.1 in Calm   2 mph 73 % 0 in
15:42 60.6 °F 53.4 °F 30.1 in Calm   2 mph 77 % 0 in
15:47 60.3 °F 53.1 °F 30.1 in Calm   2 mph 77 % 0 in
15:52 60.3 °F 53.4 °F 30.1 in Calm   3 mph 78 % 0 in
15:57 60.3 °F 53.4 °F 30.1 in Calm   3 mph 78 % 0 in
16:02 60.3 °F 53.4 °F 30.1 in NE 1 mph 3 mph 78 % 0 in
16:12 60.1 °F 51.8 °F 30.1 in NE 6 mph 6 mph 74 % 0 in
16:17 60.3 °F 51.3 °F 30.1 in NE 4 mph 8 mph 72 % 0 in
16:22 60.3 °F 51.6 °F 30.1 in NNE 6 mph 8 mph 73 % 0 in
16:32 60.4 °F 51.4 °F 30.1 in North 1 mph 8 mph 72 % 0 in
16:42 60.6 °F 52 °F 30.1 in NNE 3 mph 4 mph 73 % 0 in
16:47 61 °F 52 °F 30.1 in NNW 2 mph 5 mph 72 % 0 in
16:52 61.2 °F 51.6 °F 30.1 in NE 5 mph 6 mph 71 % 0 in
16:57 61.2 °F 51.3 °F 30.1 in NE 4 mph 8 mph 70 % 0 in
17:02 61.2 °F 51.3 °F 30.1 in NNE 3 mph 8 mph 70 % 0 in
17:12 61.3 °F 51.1 °F 30.1 in NE 7 mph 11 mph 69 % 0 in
17:17 61.5 °F 51.6 °F 30.1 in NNE 1 mph 11 mph 70 % 0 in
17:22 61.5 °F 51.6 °F 30.1 in NNE 2 mph 9 mph 70 % 0 in
17:32 61.5 °F 52 °F 30.1 in ENE 1 mph 8 mph 71 % 0 in
17:37 61.5 °F 51.6 °F 30.1 in NNW 4 mph 8 mph 70 % 0 in
17:42 61.5 °F 52.3 °F 30.1 in NW 2 mph 9 mph 72 % 0 in
17:47 61.7 °F 52.5 °F 30.1 in NE 3 mph 9 mph 72 % 0 in
17:52 61.9 °F 52 °F 30.1 in NE 4 mph 9 mph 70 % 0 in
17:57 62.1 °F 52.2 °F 30.1 in NNE 1 mph 5 mph 70 % 0 in
18:02 62.2 °F 51.1 °F 30.1 in NNE 4 mph 5 mph 67 % 0 in
18:12 62.4 °F 51.3 °F 30.1 in NNE 4 mph 6 mph 67 % 0 in
18:17 62.4 °F 51.3 °F 30.1 in NNE 1 mph 6 mph 67 % 0 in
18:22 62.4 °F 51.3 °F 30.1 in NE 3 mph 6 mph 67 % 0 in
18:32 62.2 °F 50.7 °F 30.1 in NE 1 mph 8 mph 66 % 0 in
18:37 62.1 °F 51.4 °F 30.1 in Calm   5 mph 68 % 0 in
18:42 61.9 °F 51.6 °F 30.1 in Calm   3 mph 69 % 0 in
18:47 61.9 °F 51.3 °F 30.1 in Calm   3 mph 68 % 0 in
18:57 61.5 °F 51.3 °F 30.1 in Calm   1 mph 69 % 0 in
19:02 61.3 °F 51.8 °F 30.1 in Calm   1 mph 71 % 0 in
19:12 61.2 °F 51.6 °F 30.2 in West 1 mph 1 mph 71 % 0 in
19:17 60.6 °F 52 °F 30.2 in West 6 mph 6 mph 73 % 0 in
19:22 60.6 °F 51.1 °F 30.2 in West 7 mph 8 mph 71 % 0 in
19:27 60.4 °F 52.5 °F 30.2 in West 9 mph 9 mph 75 % 0 in
19:32 60.1 °F 52.9 °F 30.2 in West 4 mph 15 mph 77 % 0 in
19:42 59.5 °F 52.7 °F 30.2 in WNW 5 mph 10 mph 78 % 0 in
19:47 59.4 °F 52.5 °F 30.2 in West 5 mph 9 mph 78 % 0 in
19:52 59.4 °F 52.9 °F 30.2 in West 2 mph 9 mph 79 % 0 in
19:57 59.2 °F 52.7 °F 30.2 in West 5 mph 8 mph 79 % 0 in
20:02 59 °F 53.2 °F 30.2 in NW 1 mph 8 mph 81 % 0.01 in
20:12 58.5 °F 52.7 °F 30.2 in West 2 mph 7 mph 81 % 0.01 in
20:17 58.3 °F 52.9 °F 30.2 in West 4 mph 7 mph 82 % 0.02 in
20:22 58.3 °F 52.9 °F 30.2 in West 1 mph 7 mph 82 % 0.02 in
20:27 58.1 °F 52.9 °F 30.2 in Calm   7 mph 83 % 0.02 in
20:32 57.9 °F 52.7 °F 30.2 in WNW 2 mph 6 mph 83 % 0.02 in
20:42 57.7 °F 53.2 °F 30.2 in WNW 1 mph 4 mph 85 % 0.02 in
20:52 57.6 °F 53.1 °F 30.2 in WNW 1 mph 4 mph 85 % 0.02 in
20:57 57.4 °F 52.9 °F 30.2 in NW 2 mph 4 mph 85 % 0.02 in
21:02 57.2 °F 53.1 °F 30.2 in WNW 2 mph 4 mph 86 % 0.01 in
21:12 57 °F 52.9 °F 30.2 in WNW 4 mph 4 mph 86 % 0 in
21:17 57 °F 52.9 °F 30.2 in West 1 mph 4 mph 86 % 0 in
21:22 57 °F 52.9 °F 30.2 in West 1 mph 4 mph 86 % 0 in
21:32 56.8 °F 52.3 °F 30.2 in Calm   3 mph 85 % 0 in
21:42 56.8 °F 52.3 °F 30.2 in Calm   3 mph 85 % 0 in
21:47 56.8 °F 52 °F 30.2 in Calm   3 mph 84 % 0 in
21:52 56.7 °F 51.8 °F 30.2 in NNW 1 mph 2 mph 84 % 0 in
21:57 56.7 °F 51.8 °F 30.2 in NW 1 mph 3 mph 84 % 0 in
22:02 56.7 °F 51.8 °F 30.2 in NW 1 mph 3 mph 84 % 0 in
22:12 56.7 °F 52.2 °F 30.2 in NW 2 mph 4 mph 85 % 0 in
22:17 56.5 °F 52.3 °F 30.2 in NW 1 mph 4 mph 86 % 0 in
22:22 56.1 °F 52 °F 30.2 in WNW 3 mph 4 mph 86 % 0 in
22:27 56.1 °F 51.6 °F 30.2 in WNW 1 mph 4 mph 85 % 0 in
22:32 56.1 °F 52 °F 30.2 in NNW 2 mph 4 mph 86 % 0 in
22:42 56.1 °F 51.6 °F 30.2 in WNW 1 mph 4 mph 85 % 0 in
22:47 56.1 °F 51.6 °F 30.2 in NW 2 mph 4 mph 85 % 0 in
22:52 56.1 °F 52 °F 30.2 in NW 2 mph 4 mph 86 % 0 in
22:57 55.9 °F 51.8 °F 30.2 in Calm   4 mph 86 % 0 in
23:02 55.8 °F 51.6 °F 30.2 in WNW 1 mph 4 mph 86 % 0 in
23:12 55.6 °F 51.8 °F 30.2 in Calm   3 mph 87 % 0 in
23:17 55.6 °F 51.8 °F 30.2 in Calm   3 mph 87 % 0 in
23:22 55.6 °F 51.4 °F 30.2 in NNW 1 mph 3 mph 86 % 0 in
23:32 55.8 °F 51.6 °F 30.2 in Calm   2 mph 86 % 0 in
23:37 55.8 °F 51.6 °F 30.2 in Calm   2 mph 86 % 0 in
23:42 55.8 °F 51.3 °F 30.2 in NNW 1 mph 1 mph 85 % 0 in
23:47 55.8 °F 51.3 °F 30.2 in NNW 1 mph 1 mph 85 % 0 in
23:52 55.8 °F 51.3 °F 30.2 in WNW 1 mph 2 mph 85 % 0 in
23:57 55.6 °F 51.1 °F 30.2 in West 1 mph 2 mph 85 % 0 in
Meteo18
Compliments of Weather Underground - 4 mb

Script developed by  Jim McMurry - jmcmurry@mwt.net Adapted for the template by  Wim van der Kuil - Leuven-Template.eu

You find our weather info also at:

European Weather Network

Weather Underground

Equipment we use:

Weather-station
Davis Vue

Weather-program
Meteohub

Weather-server
Raspberry PI 2 B+

Provider
1 and 1

Davis Vue

Meteohub

Raspberry PI 2 B+

1 and 1